createdAt,value
2022-12-28T00:00:40.490Z,3.30
2022-12-28T00:01:42.077Z,3.80
2022-12-28T00:02:43.516Z,3.90
2022-12-28T00:03:45.472Z,4.00
2022-12-28T00:04:47.246Z,4.53
2022-12-28T00:05:48.676Z,3.88
2022-12-28T00:06:50.790Z,4.15
2022-12-28T00:08:54.475Z,3.50
2022-12-28T00:09:55.906Z,3.78
2022-12-28T00:11:26.661Z,3.72
2022-12-28T00:12:32.874Z,4.10
2022-12-28T00:13:35.738Z,3.83
2022-12-28T00:14:37.167Z,3.63
2022-12-28T00:15:38.623Z,3.75
2022-12-28T00:16:41.837Z,4.07
2022-12-28T00:17:43.296Z,4.13
2022-12-28T00:18:44.724Z,4.10
2022-12-28T00:19:46.218Z,3.72
2022-12-28T00:20:58.007Z,4.25
2022-12-28T00:21:59.415Z,3.88
2022-12-28T00:23:05.627Z,3.70
2022-12-28T00:24:07.974Z,3.78
2022-12-28T00:25:09.626Z,3.40
2022-12-28T00:26:13.189Z,4.28
2022-12-28T00:27:14.645Z,4.03
2022-12-28T00:28:16.046Z,3.92
2022-12-28T00:29:18.403Z,3.67
2022-12-28T00:30:19.869Z,4.43
2022-12-28T00:31:21.298Z,4.30
2022-12-28T00:32:22.786Z,3.90
2022-12-28T00:33:24.215Z,3.80
2022-12-28T00:34:25.734Z,4.05
2022-12-28T00:35:27.177Z,4.45
2022-12-28T00:37:08.659Z,3.92
2022-12-28T00:37:52.903Z,3.78
2022-12-28T00:38:54.289Z,4.10
2022-12-28T00:39:55.693Z,3.83
2022-12-28T00:40:58.231Z,3.88
2022-12-28T00:41:59.632Z,3.80
2022-12-28T00:43:01.053Z,3.65
2022-12-28T00:44:02.496Z,4.03
2022-12-28T00:45:04.322Z,4.43
2022-12-28T00:46:05.937Z,4.13
2022-12-28T00:47:07.508Z,3.78
2022-12-28T00:48:12.133Z,4.03
2022-12-28T00:49:13.650Z,4.03
2022-12-28T00:50:15.116Z,4.43
2022-12-28T00:51:20.806Z,3.50
2022-12-28T00:52:22.208Z,4.03
2022-12-28T00:53:24.802Z,3.58
2022-12-28T00:54:26.312Z,4.10
2022-12-28T00:55:27.750Z,3.65
2022-12-28T00:56:29.197Z,3.80
2022-12-28T00:57:31.359Z,3.58
2022-12-28T00:58:33.368Z,4.07
2022-12-28T00:59:34.850Z,3.47
2022-12-28T01:00:37.365Z,3.85
2022-12-28T01:01:39.328Z,3.70
2022-12-28T01:02:40.981Z,4.00
2022-12-28T01:03:42.823Z,3.70
2022-12-28T01:04:44.325Z,4.30
2022-12-28T01:05:45.715Z,3.85
2022-12-28T01:06:47.175Z,3.85
2022-12-28T01:07:49.108Z,3.90
2022-12-28T01:08:50.536Z,3.85
2022-12-28T01:09:51.937Z,3.55
2022-12-28T01:10:53.333Z,3.80
2022-12-28T01:11:54.787Z,4.05
2022-12-28T01:12:56.227Z,3.90
2022-12-28T01:14:00.229Z,3.97
2022-12-28T01:15:02.916Z,4.00
2022-12-28T01:16:11.617Z,3.92
2022-12-28T01:17:13.064Z,4.28
2022-12-28T01:18:15.429Z,4.15
2022-12-28T01:19:21.771Z,3.95
2022-12-28T01:20:23.184Z,3.47
2022-12-28T01:21:28.117Z,4.47
2022-12-28T01:22:29.613Z,4.22
2022-12-28T01:23:31.022Z,4.63
2022-12-28T01:24:32.409Z,3.97
2022-12-28T01:25:34.435Z,4.43
2022-12-28T01:26:35.942Z,4.38
2022-12-28T01:27:37.408Z,4.32
2022-12-28T01:28:39.187Z,4.07
2022-12-28T01:29:40.692Z,4.10
2022-12-28T01:30:42.088Z,4.45
2022-12-28T01:31:43.588Z,4.07
2022-12-28T01:32:45.064Z,4.40
2022-12-28T01:33:47.310Z,4.22
2022-12-28T01:34:48.837Z,4.47
2022-12-28T01:35:50.235Z,4.00
2022-12-28T01:36:51.657Z,4.32
2022-12-28T01:37:53.071Z,4.43
2022-12-28T01:38:57.266Z,3.97
2022-12-28T01:39:59.381Z,4.05
2022-12-28T01:42:02.183Z,4.13
2022-12-28T01:43:13.296Z,4.82
2022-12-28T01:44:14.679Z,4.03
2022-12-28T01:45:21.245Z,4.35
2022-12-28T01:46:30.085Z,5.50
2022-12-28T01:47:35.683Z,4.53
2022-12-28T01:48:42.232Z,4.25
2022-12-28T01:49:47.076Z,4.57
2022-12-28T01:50:50.352Z,4.70
2022-12-28T01:52:07.128Z,4.35
2022-12-28T01:53:08.966Z,4.75
2022-12-28T01:54:11.239Z,4.75
2022-12-28T01:55:18.912Z,5.03
2022-12-28T01:56:24.036Z,3.97
2022-12-28T01:57:29.953Z,5.10
2022-12-28T01:58:33.391Z,4.40
2022-12-28T01:59:39.823Z,4.72
2022-12-28T02:00:41.394Z,5.10
2022-12-28T02:01:46.000Z,5.10
2022-12-28T02:03:00.469Z,5.07
2022-12-28T02:04:02.015Z,4.80
2022-12-28T02:06:09.538Z,4.90
2022-12-28T02:07:14.098Z,5.15
2022-12-28T02:08:23.036Z,4.80
2022-12-28T02:09:35.697Z,5.60
2022-12-28T02:10:41.233Z,5.20
2022-12-28T02:11:47.604Z,5.45
2022-12-28T02:12:49.059Z,5.45
2022-12-28T02:13:52.084Z,5.35
2022-12-28T02:14:53.637Z,5.25
2022-12-28T02:15:55.035Z,5.00
2022-12-28T02:16:56.776Z,4.90
2022-12-28T02:17:58.964Z,5.22
2022-12-28T02:19:00.612Z,4.82
2022-12-28T02:20:02.562Z,4.63
2022-12-28T02:21:06.777Z,4.82
2022-12-28T02:22:52.096Z,5.82
2022-12-28T02:24:15.176Z,5.13
2022-12-28T02:25:50.072Z,5.05
2022-12-28T02:27:01.670Z,6.30
2022-12-28T02:28:32.827Z,5.47
2022-12-28T02:29:55.933Z,6.05
2022-12-28T02:31:06.365Z,5.40
2022-12-28T02:32:54.267Z,5.80
2022-12-28T02:34:03.722Z,5.20
2022-12-28T02:35:17.503Z,6.07
2022-12-28T02:36:26.881Z,5.03
2022-12-28T02:37:36.306Z,6.25
2022-12-28T02:38:51.856Z,5.13
2022-12-28T02:40:02.167Z,5.97
2022-12-28T02:41:08.931Z,5.28
2022-12-28T02:42:11.588Z,5.68
2022-12-28T02:43:13.725Z,5.60
2022-12-28T02:46:01.322Z,5.57
2022-12-28T02:47:22.445Z,5.55
2022-12-28T02:48:43.369Z,5.18
2022-12-28T02:50:03.305Z,5.57
2022-12-28T02:51:17.138Z,6.07
2022-12-28T02:52:23.789Z,5.57
2022-12-28T02:53:27.920Z,5.57
2022-12-28T02:55:15.702Z,5.82
2022-12-28T02:56:29.026Z,5.22
2022-12-28T02:57:45.712Z,5.38
2022-12-28T02:58:53.244Z,5.95
2022-12-28T03:00:04.827Z,5.90
2022-12-28T03:01:28.091Z,5.93
2022-12-28T03:02:57.390Z,5.70
2022-12-28T03:03:58.775Z,5.47
2022-12-28T03:05:11.463Z,6.05
2022-12-28T03:06:48.911Z,5.63
2022-12-28T03:08:21.624Z,5.60
2022-12-28T03:09:32.269Z,6.35
2022-12-28T03:10:46.442Z,6.68
2022-12-28T03:12:57.549Z,5.45
2022-12-28T03:14:05.568Z,5.28
2022-12-28T03:15:10.575Z,5.95
2022-12-28T03:16:21.020Z,5.70
2022-12-28T03:17:44.019Z,5.40
2022-12-28T03:19:07.296Z,4.80
2022-12-28T03:20:34.777Z,5.50
2022-12-28T03:21:55.938Z,6.05
2022-12-28T03:23:19.389Z,5.40
2022-12-28T03:24:39.246Z,5.05
2022-12-28T03:26:03.585Z,5.20
2022-12-28T03:27:29.320Z,4.75
2022-12-28T03:28:51.235Z,4.75
2022-12-28T03:30:31.408Z,5.32
2022-12-28T03:31:34.823Z,4.40
2022-12-28T03:32:36.458Z,4.72
2022-12-28T03:33:50.478Z,5.18
2022-12-28T03:34:52.022Z,5.50
2022-12-28T03:36:08.614Z,5.70
2022-12-28T03:37:17.396Z,5.25
2022-12-28T03:38:31.628Z,5.10
2022-12-28T03:39:45.076Z,5.35
2022-12-28T03:40:50.043Z,4.70
2022-12-28T03:42:33.530Z,5.32
2022-12-28T03:43:50.304Z,4.43
2022-12-28T03:45:01.931Z,4.63
2022-12-28T03:46:10.054Z,5.15
2022-12-28T03:48:16.995Z,4.80
2022-12-28T03:49:18.755Z,4.53
2022-12-28T03:50:21.484Z,4.93
2022-12-28T03:51:24.663Z,4.78
2022-12-28T03:52:27.077Z,5.10
2022-12-28T03:53:36.995Z,4.88
2022-12-28T03:54:40.272Z,4.22
2022-12-28T03:55:43.259Z,4.38
2022-12-28T03:56:50.273Z,4.80
2022-12-28T03:57:51.687Z,4.50
2022-12-28T03:58:54.406Z,4.88
2022-12-28T03:59:56.015Z,4.57
2022-12-28T04:00:57.487Z,4.90
2022-12-28T04:01:58.959Z,4.85
2022-12-28T04:03:00.580Z,4.57
2022-12-28T04:04:02.272Z,4.55
2022-12-28T04:05:04.935Z,4.78
2022-12-28T04:06:07.202Z,4.68
2022-12-28T04:07:11.411Z,4.25
2022-12-28T04:08:12.808Z,4.10
2022-12-28T04:09:14.305Z,4.78
2022-12-28T04:10:15.851Z,4.63
2022-12-28T04:11:18.846Z,4.80
2022-12-28T04:12:20.397Z,4.18
2022-12-28T04:13:21.831Z,4.32
2022-12-28T04:14:23.228Z,4.57
2022-12-28T04:15:24.653Z,4.43
2022-12-28T04:16:26.137Z,4.13
2022-12-28T04:17:29.041Z,4.75
2022-12-28T04:18:32.475Z,4.28
2022-12-28T04:19:35.984Z,3.97
2022-12-28T04:20:40.022Z,3.90
2022-12-28T04:21:43.564Z,4.63
2022-12-28T04:22:47.538Z,4.03
2022-12-28T04:23:48.959Z,3.83
2022-12-28T04:24:50.381Z,3.97
2022-12-28T04:26:06.999Z,3.90
2022-12-28T04:27:08.470Z,4.18
2022-12-28T04:28:09.993Z,3.70
2022-12-28T04:29:11.410Z,3.90
2022-12-28T04:30:12.868Z,4.32
2022-12-28T04:31:14.619Z,3.97
2022-12-28T04:32:16.103Z,4.15
2022-12-28T04:33:20.597Z,4.13
2022-12-28T04:34:22.074Z,4.30
2022-12-28T04:35:23.520Z,4.25
2022-12-28T04:36:25.151Z,4.18
2022-12-28T04:37:26.592Z,4.72
2022-12-28T04:38:28.013Z,4.07
2022-12-28T04:39:56.828Z,4.15
2022-12-28T04:40:50.820Z,4.38
2022-12-28T04:41:52.392Z,3.70
2022-12-28T04:42:53.920Z,3.97
2022-12-28T04:43:55.828Z,3.83
2022-12-28T04:44:57.237Z,3.58
2022-12-28T04:46:00.442Z,3.95
2022-12-28T04:47:01.912Z,4.75
2022-12-28T04:48:03.570Z,5.47
2022-12-28T04:49:05.247Z,3.45
2022-12-28T04:50:08.356Z,3.38
2022-12-28T04:51:22.292Z,3.92
2022-12-28T04:52:23.712Z,3.67
2022-12-28T04:53:25.214Z,3.80
2022-12-28T04:54:26.654Z,3.60
2022-12-28T04:55:32.364Z,5.18
2022-12-28T04:56:34.607Z,3.88
2022-12-28T04:57:35.992Z,3.75
2022-12-28T04:58:38.055Z,4.03
2022-12-28T04:59:40.405Z,3.10
2022-12-28T05:00:42.180Z,3.50
2022-12-28T05:01:43.751Z,3.55
2022-12-28T05:02:46.468Z,3.45
2022-12-28T05:03:55.039Z,3.53
2022-12-28T05:04:57.861Z,3.20
2022-12-28T05:06:04.129Z,3.15
2022-12-28T05:07:05.588Z,3.13
2022-12-28T05:08:07.015Z,2.85
2022-12-28T05:09:08.464Z,3.30
2022-12-28T05:10:09.993Z,3.63
2022-12-28T05:11:20.511Z,3.25
2022-12-28T05:12:22.298Z,3.25
2022-12-28T05:13:23.698Z,3.35
2022-12-28T05:14:25.093Z,3.53
2022-12-28T05:15:26.519Z,3.55
2022-12-28T05:16:30.634Z,3.15
2022-12-28T05:17:34.958Z,3.22
2022-12-28T05:18:36.625Z,2.83
2022-12-28T05:19:38.465Z,3.38
2022-12-28T05:20:39.877Z,3.17
2022-12-28T05:21:41.313Z,2.88
2022-12-28T05:22:42.748Z,3.42
2022-12-28T05:23:44.572Z,2.83
2022-12-28T05:24:48.009Z,3.20
2022-12-28T05:25:53.413Z,2.95
2022-12-28T05:26:57.468Z,2.83
2022-12-28T05:27:58.930Z,2.90
2022-12-28T05:29:00.646Z,3.05
2022-12-28T05:30:02.052Z,3.28
2022-12-28T05:31:06.443Z,3.05
2022-12-28T05:32:07.897Z,3.15
2022-12-28T05:33:09.344Z,2.78
2022-12-28T05:34:13.731Z,2.95
2022-12-28T05:35:15.237Z,3.13
2022-12-28T05:36:19.271Z,2.97
2022-12-28T05:37:22.324Z,2.97
2022-12-28T05:38:23.916Z,2.65
2022-12-28T05:39:25.396Z,3.33
2022-12-28T05:40:26.849Z,2.95
2022-12-28T05:41:29.500Z,2.65
2022-12-28T05:42:30.991Z,2.97
2022-12-28T05:43:32.992Z,2.35
2022-12-28T05:44:34.423Z,2.38
2022-12-28T05:45:35.884Z,3.17
2022-12-28T05:46:37.507Z,2.72
2022-12-28T05:47:38.937Z,3.15
2022-12-28T05:48:42.025Z,2.95
2022-12-28T05:49:43.431Z,2.80
2022-12-28T05:50:44.834Z,2.85
2022-12-28T05:51:49.023Z,3.08
2022-12-28T05:52:53.227Z,2.53
2022-12-28T05:53:55.449Z,2.22
2022-12-28T05:54:56.875Z,2.97
2022-12-28T05:56:03.879Z,2.90
2022-12-28T05:57:05.277Z,2.63
2022-12-28T05:58:08.478Z,2.70
2022-12-28T05:59:10.030Z,3.30
2022-12-28T06:00:11.952Z,2.47
2022-12-28T06:01:22.350Z,2.50
2022-12-28T06:02:27.393Z,2.65
2022-12-28T06:03:29.077Z,3.17
2022-12-28T06:04:30.537Z,2.90
2022-12-28T06:05:34.872Z,2.67
2022-12-28T06:06:36.494Z,3.00
2022-12-28T06:07:38.415Z,2.95
2022-12-28T06:08:42.580Z,3.05
2022-12-28T06:09:43.978Z,2.65
2022-12-28T06:10:45.380Z,2.65
2022-12-28T06:11:46.837Z,2.40
2022-12-28T06:12:48.308Z,2.83
2022-12-28T06:13:50.606Z,2.60
2022-12-28T06:14:52.032Z,3.05
2022-12-28T06:15:53.452Z,3.42
2022-12-28T06:16:54.876Z,2.40
2022-12-28T06:17:56.358Z,2.65
2022-12-28T06:18:58.232Z,2.67
2022-12-28T06:19:59.633Z,2.35
2022-12-28T06:21:05.711Z,2.85
2022-12-28T06:22:07.127Z,2.72
2022-12-28T06:23:08.589Z,2.78
2022-12-28T06:24:11.167Z,2.42
2022-12-28T06:25:13.247Z,2.42
2022-12-28T06:27:18.725Z,2.45
2022-12-28T06:28:20.147Z,2.70
2022-12-28T06:29:21.611Z,3.15
2022-12-28T06:30:23.074Z,2.55
2022-12-28T06:31:27.622Z,3.70
2022-12-28T06:32:29.144Z,3.00
2022-12-28T06:33:30.816Z,2.85
2022-12-28T06:34:32.292Z,2.63
2022-12-28T06:35:33.967Z,2.83
2022-12-28T06:36:41.187Z,3.20
2022-12-28T06:37:42.615Z,2.80
2022-12-28T06:38:44.951Z,2.53
2022-12-28T06:39:46.364Z,2.65
2022-12-28T06:41:12.367Z,2.75
2022-12-28T06:42:09.203Z,2.38
2022-12-28T06:43:10.614Z,2.60
2022-12-28T06:44:16.214Z,3.42
2022-12-28T06:45:17.606Z,2.80
2022-12-28T06:46:20.660Z,2.60
2022-12-28T06:47:22.111Z,2.50
2022-12-28T06:48:23.585Z,3.33
2022-12-28T06:49:25.038Z,2.92
2022-12-28T06:50:26.443Z,3.40
2022-12-28T06:51:30.705Z,3.00
2022-12-28T06:52:32.696Z,3.28
2022-12-28T06:53:36.562Z,3.00
2022-12-28T06:54:37.959Z,3.25
2022-12-28T06:55:39.344Z,3.42
2022-12-28T06:56:40.782Z,3.42
2022-12-28T06:57:42.195Z,3.00
2022-12-28T06:58:45.398Z,3.15
2022-12-28T06:59:46.818Z,3.40
2022-12-28T07:00:48.813Z,3.85
2022-12-28T07:01:50.292Z,3.65
2022-12-28T07:02:57.602Z,3.63
2022-12-28T07:04:03.532Z,4.28
2022-12-28T07:05:05.216Z,4.03
2022-12-28T07:06:07.007Z,4.07
2022-12-28T07:07:09.114Z,3.70
2022-12-28T07:09:16.172Z,3.33
2022-12-28T07:10:17.582Z,3.75
2022-12-28T07:11:21.356Z,3.90
2022-12-28T07:12:22.826Z,3.10
2022-12-28T07:13:28.095Z,3.25
2022-12-28T07:14:29.928Z,3.78
2022-12-28T07:15:31.680Z,3.72
2022-12-28T07:17:33.559Z,3.78
2022-12-28T07:18:35.381Z,3.83
2022-12-28T07:19:36.853Z,3.53
2022-12-28T07:20:40.594Z,3.60
2022-12-28T07:21:42.145Z,3.97
2022-12-28T07:22:43.554Z,3.92
2022-12-28T07:23:45.031Z,3.80
2022-12-28T07:24:46.419Z,4.05
2022-12-28T07:25:47.852Z,4.15
2022-12-28T07:26:49.638Z,4.13
2022-12-28T07:27:51.032Z,3.90
2022-12-28T07:28:54.386Z,4.15
2022-12-28T07:29:55.772Z,4.32
2022-12-28T07:30:59.787Z,4.43
2022-12-28T07:32:01.239Z,4.35
2022-12-28T07:33:04.065Z,3.63
2022-12-28T07:34:05.709Z,3.92
2022-12-28T07:35:07.545Z,3.67
2022-12-28T07:36:12.831Z,4.13
2022-12-28T07:37:14.260Z,3.78
2022-12-28T07:38:21.177Z,3.88
2022-12-28T07:39:22.952Z,4.00
2022-12-28T07:40:24.374Z,4.25
2022-12-28T07:41:35.831Z,3.83
2022-12-28T07:42:37.235Z,3.90
2022-12-28T07:43:38.981Z,4.05
2022-12-28T07:44:45.469Z,3.58
2022-12-28T07:45:59.678Z,3.47
2022-12-28T07:47:01.178Z,3.70
2022-12-28T07:48:02.653Z,3.55
2022-12-28T07:49:04.542Z,3.47
2022-12-28T07:50:06.406Z,3.65
2022-12-28T07:51:13.776Z,4.20
2022-12-28T07:52:15.194Z,3.55
2022-12-28T07:53:21.903Z,4.22
2022-12-28T07:54:23.636Z,4.13
2022-12-28T07:55:25.094Z,3.83
2022-12-28T07:56:28.148Z,3.75
2022-12-28T07:57:32.424Z,3.58
2022-12-28T07:58:36.839Z,3.55
2022-12-28T07:59:38.261Z,4.10
2022-12-28T08:00:39.708Z,3.63
2022-12-28T08:01:41.265Z,4.07
2022-12-28T08:02:42.698Z,3.85
2022-12-28T08:03:44.794Z,3.80
2022-12-28T08:05:53.528Z,3.40
2022-12-28T08:06:54.950Z,4.03
2022-12-28T08:08:03.258Z,3.95
2022-12-28T08:09:06.674Z,3.95
2022-12-28T08:10:08.439Z,3.90
2022-12-28T08:11:13.336Z,3.22
2022-12-28T08:12:15.333Z,4.10
2022-12-28T08:13:17.214Z,3.80
2022-12-28T08:14:18.637Z,3.95
2022-12-28T08:15:20.036Z,3.55
2022-12-28T08:16:23.274Z,4.28
2022-12-28T08:17:24.663Z,4.15
2022-12-28T08:18:26.363Z,3.95
2022-12-28T08:19:30.638Z,3.83
2022-12-28T08:20:32.101Z,4.95
2022-12-28T08:21:51.942Z,5.05
2022-12-28T08:22:53.655Z,3.30
2022-12-28T08:23:55.794Z,3.67
2022-12-28T08:26:15.931Z,3.60
2022-12-28T08:27:17.653Z,4.35
2022-12-28T08:28:19.795Z,3.30
2022-12-28T08:29:22.548Z,3.70
2022-12-28T08:30:23.947Z,4.43
2022-12-28T08:31:34.963Z,3.97
2022-12-28T08:32:36.466Z,4.72
2022-12-28T08:33:38.078Z,4.72
2022-12-28T08:34:39.506Z,4.03
2022-12-28T08:35:40.991Z,3.65
2022-12-28T08:36:42.657Z,3.42
2022-12-28T08:37:44.098Z,3.05
2022-12-28T08:38:45.886Z,3.50
2022-12-28T08:39:47.349Z,3.63
2022-12-28T08:40:59.362Z,3.33
2022-12-28T08:42:00.818Z,3.95
2022-12-28T08:43:02.511Z,3.28
2022-12-28T08:44:04.161Z,3.33
2022-12-28T08:45:06.277Z,3.53
2022-12-28T08:47:10.224Z,3.20
2022-12-28T08:48:11.635Z,3.17
2022-12-28T08:49:13.227Z,2.75
2022-12-28T08:50:19.482Z,2.90
2022-12-28T08:51:33.522Z,3.20
2022-12-28T08:52:34.929Z,2.67
2022-12-28T08:53:37.579Z,2.80
2022-12-28T08:54:41.571Z,2.88
2022-12-28T08:55:43.056Z,2.78
2022-12-28T08:56:45.302Z,2.72
2022-12-28T08:57:46.730Z,3.38
2022-12-28T08:58:49.101Z,2.80
2022-12-28T08:59:50.542Z,2.53
2022-12-28T09:00:51.995Z,2.25
2022-12-28T09:01:53.530Z,2.92
2022-12-28T09:02:55.752Z,2.75
2022-12-28T09:03:59.470Z,2.83
2022-12-28T09:05:00.852Z,2.30
2022-12-28T09:06:03.981Z,2.38
2022-12-28T09:07:05.380Z,3.08
2022-12-28T09:08:08.340Z,2.85
2022-12-28T09:09:14.524Z,2.70
2022-12-28T09:10:16.068Z,2.67
2022-12-28T09:11:21.072Z,2.92
2022-12-28T09:12:22.585Z,3.25
2022-12-28T09:13:24.026Z,2.67
2022-12-28T09:14:25.427Z,4.20
2022-12-28T09:15:27.012Z,2.70
2022-12-28T09:16:28.610Z,2.63
2022-12-28T09:17:30.071Z,2.95
2022-12-28T09:18:32.168Z,2.72
2022-12-28T09:20:35.537Z,2.67
2022-12-28T09:21:38.922Z,2.53
2022-12-28T09:22:40.328Z,2.63
2022-12-28T09:23:42.937Z,3.13
2022-12-28T09:24:44.370Z,2.33
2022-12-28T09:25:45.916Z,2.83
2022-12-28T09:26:48.667Z,2.92
2022-12-28T09:27:55.982Z,3.00
2022-12-28T09:29:02.697Z,2.85
2022-12-28T09:30:04.375Z,2.90
2022-12-28T09:31:07.640Z,2.92
2022-12-28T09:32:09.057Z,2.90
2022-12-28T09:33:32.479Z,3.30
2022-12-28T09:34:37.608Z,3.05
2022-12-28T09:35:39.687Z,3.10
2022-12-28T09:36:43.276Z,3.10
2022-12-28T09:37:45.025Z,3.15
2022-12-28T09:38:47.512Z,3.13
2022-12-28T09:39:48.976Z,3.20
2022-12-28T09:40:50.521Z,2.97
2022-12-28T09:41:59.462Z,3.70
2022-12-28T09:43:01.391Z,3.67
2022-12-28T09:44:09.205Z,3.25
2022-12-28T09:45:12.243Z,3.33
2022-12-28T09:46:18.298Z,2.92
2022-12-28T09:47:27.329Z,3.50
2022-12-28T09:48:31.054Z,3.42
2022-12-28T09:49:43.080Z,3.45
2022-12-28T09:50:46.238Z,2.70
2022-12-28T09:52:13.809Z,2.58
2022-12-28T09:53:34.312Z,3.05
2022-12-28T09:54:35.859Z,2.83
2022-12-28T09:55:39.909Z,2.83
2022-12-28T09:56:43.184Z,3.13
2022-12-28T09:57:55.566Z,3.08
2022-12-28T09:58:57.210Z,2.72
2022-12-28T09:59:58.844Z,3.10
2022-12-28T10:01:02.723Z,3.13
2022-12-28T10:02:05.229Z,3.38
2022-12-28T10:03:20.408Z,2.85
2022-12-28T10:04:22.126Z,2.85
2022-12-28T10:05:23.736Z,3.40
2022-12-28T10:06:28.307Z,2.83
2022-12-28T10:07:29.699Z,2.85
2022-12-28T10:08:31.318Z,3.25
2022-12-28T10:09:34.212Z,2.92
2022-12-28T10:10:35.696Z,2.80
2022-12-28T10:11:41.664Z,2.75
2022-12-28T10:12:43.885Z,2.92
2022-12-28T10:13:54.725Z,2.70
2022-12-28T10:14:57.485Z,2.67
2022-12-28T10:15:59.362Z,2.83
2022-12-28T10:17:02.174Z,3.00
2022-12-28T10:18:05.496Z,3.40
2022-12-28T10:19:07.808Z,2.85
2022-12-28T10:20:24.218Z,2.88
2022-12-28T10:21:32.750Z,2.55
2022-12-28T10:22:48.036Z,2.92
2022-12-28T10:24:29.591Z,2.72
2022-12-28T10:25:19.313Z,2.63
2022-12-28T10:26:21.201Z,6.40
2022-12-28T10:27:31.646Z,3.30
2022-12-28T10:28:48.676Z,2.47
2022-12-28T10:29:52.356Z,2.70
2022-12-28T10:31:11.512Z,2.80
2022-12-28T10:32:13.065Z,2.55
2022-12-28T10:33:21.354Z,2.70
2022-12-28T10:34:22.884Z,2.83
2022-12-28T10:35:49.511Z,4.20
2022-12-28T10:36:52.499Z,2.60
2022-12-28T10:38:06.077Z,2.83
2022-12-28T10:39:16.217Z,2.72
2022-12-28T10:40:28.984Z,2.90
2022-12-28T10:41:37.178Z,3.00
2022-12-28T10:42:42.367Z,3.00
2022-12-28T10:44:21.643Z,2.75
2022-12-28T10:45:23.810Z,3.10
2022-12-28T10:46:25.516Z,2.80
2022-12-28T10:47:35.996Z,3.30
2022-12-28T10:48:39.684Z,3.40
2022-12-28T10:50:02.876Z,3.13
2022-12-28T10:51:18.619Z,3.42
2022-12-28T10:52:20.935Z,3.42
2022-12-28T10:53:43.000Z,2.85
2022-12-28T10:54:44.755Z,3.80
2022-12-28T10:55:47.800Z,3.35
2022-12-28T10:56:49.848Z,3.17
2022-12-28T10:59:12.700Z,3.97
2022-12-28T11:00:22.785Z,3.40
2022-12-28T11:01:31.906Z,3.20
2022-12-28T11:02:34.617Z,3.00
2022-12-28T11:03:38.730Z,3.35
2022-12-28T11:04:53.248Z,3.20
2022-12-28T11:06:26.277Z,3.45
2022-12-28T11:07:34.880Z,3.30
2022-12-28T11:08:37.551Z,3.45
2022-12-28T11:09:38.987Z,3.30
2022-12-28T11:10:40.541Z,3.17
2022-12-28T11:11:44.436Z,3.30
2022-12-28T11:12:46.058Z,3.05
2022-12-28T11:13:53.420Z,3.15
2022-12-28T11:14:56.215Z,3.05
2022-12-28T11:15:57.867Z,3.45
2022-12-28T11:17:15.392Z,3.33
2022-12-28T11:18:18.985Z,2.83
2022-12-28T11:19:21.537Z,3.15
2022-12-28T11:20:35.428Z,3.38
2022-12-28T11:21:37.103Z,3.03
2022-12-28T11:22:38.569Z,2.80
2022-12-28T11:23:40.230Z,2.60
2022-12-28T11:24:41.779Z,3.03
2022-12-28T11:25:43.349Z,2.80
2022-12-28T11:26:49.683Z,2.95
2022-12-28T11:27:51.150Z,2.60
2022-12-28T11:28:52.953Z,2.50
2022-12-28T11:29:57.474Z,3.28
2022-12-28T11:30:59.397Z,3.03
2022-12-28T11:32:18.914Z,2.50
2022-12-28T11:33:40.725Z,2.58
2022-12-28T11:34:42.357Z,3.10
2022-12-28T11:35:48.511Z,2.20
2022-12-28T11:36:50.551Z,2.75
2022-12-28T11:38:58.621Z,3.00
2022-12-28T11:40:01.319Z,2.60
2022-12-28T11:41:02.754Z,2.88
2022-12-28T11:42:37.857Z,2.78
2022-12-28T11:43:28.768Z,2.63
2022-12-28T11:44:30.182Z,2.75
2022-12-28T11:45:52.610Z,2.80
2022-12-28T11:47:05.035Z,2.58
2022-12-28T11:48:38.314Z,2.60
2022-12-28T11:49:39.739Z,2.97
2022-12-28T11:50:42.245Z,2.90
2022-12-28T11:51:43.858Z,2.60
2022-12-28T11:52:47.461Z,2.70
2022-12-28T11:53:57.288Z,2.90
2022-12-28T11:55:00.776Z,2.75
2022-12-28T11:56:09.741Z,2.70
2022-12-28T11:57:11.248Z,2.65
2022-12-28T11:58:38.834Z,3.65
2022-12-28T11:59:40.329Z,2.33
2022-12-28T12:00:50.707Z,2.70
2022-12-28T12:01:54.127Z,3.47
2022-12-28T12:02:56.725Z,2.83
2022-12-28T12:03:58.245Z,2.53
2022-12-28T12:04:59.709Z,2.80
2022-12-28T12:06:01.177Z,2.90
2022-12-28T12:07:02.662Z,3.10
2022-12-28T12:08:16.708Z,2.85
2022-12-28T12:09:21.118Z,2.72
2022-12-28T12:10:34.984Z,2.78
2022-12-28T12:11:40.349Z,2.83
2022-12-28T12:12:48.549Z,2.63
2022-12-28T12:13:51.315Z,3.20
2022-12-28T12:15:16.369Z,2.75
2022-12-28T12:16:35.689Z,2.50
2022-12-28T12:17:49.325Z,2.47
2022-12-28T12:18:57.202Z,2.80
2022-12-28T12:20:02.365Z,2.70
2022-12-28T12:21:15.100Z,2.92
2022-12-28T12:22:53.508Z,2.45
2022-12-28T12:24:05.979Z,2.38
2022-12-28T12:25:37.295Z,2.75
2022-12-28T12:26:45.266Z,3.13
2022-12-28T12:27:57.203Z,2.80
2022-12-28T12:29:15.884Z,2.90
2022-12-28T12:30:19.992Z,2.80
2022-12-28T12:31:29.772Z,2.53
2022-12-28T12:32:57.641Z,2.58
2022-12-28T12:34:19.581Z,2.70
2022-12-28T12:35:27.388Z,2.70
2022-12-28T12:36:50.900Z,2.70
2022-12-28T12:37:59.543Z,2.30
2022-12-28T12:39:30.887Z,2.90
2022-12-28T12:40:57.791Z,2.70
2022-12-28T12:42:23.262Z,2.60
2022-12-28T12:44:05.979Z,2.47
2022-12-28T12:45:20.643Z,3.13
2022-12-28T12:46:46.897Z,2.40
2022-12-28T12:47:48.282Z,2.80
2022-12-28T12:49:17.771Z,2.78
2022-12-28T12:50:57.622Z,2.38
2022-12-28T12:52:20.337Z,2.55
2022-12-28T12:53:49.933Z,2.67
2022-12-28T12:55:10.193Z,3.05
2022-12-28T12:56:45.809Z,2.75
2022-12-28T12:58:15.910Z,2.47
2022-12-28T12:59:39.528Z,2.88
2022-12-28T13:01:08.916Z,2.50
2022-12-28T13:02:34.663Z,2.60
2022-12-28T13:03:46.426Z,2.53
2022-12-28T13:04:50.106Z,3.40
2022-12-28T13:05:55.073Z,2.35
2022-12-28T13:07:00.803Z,2.70
2022-12-28T13:08:03.862Z,2.70
2022-12-28T13:09:08.508Z,2.95
2022-12-28T13:10:17.203Z,2.88
2022-12-28T13:11:19.863Z,2.70
2022-12-28T13:12:22.056Z,2.92
2022-12-28T13:13:35.952Z,2.80
2022-12-28T13:14:37.412Z,2.88
2022-12-28T13:15:43.890Z,2.90
2022-12-28T13:16:48.932Z,2.95
2022-12-28T13:19:36.279Z,2.67
2022-12-28T13:20:37.731Z,2.50
2022-12-28T13:21:45.979Z,3.03
2022-12-28T13:22:48.676Z,2.72
2022-12-28T13:23:51.769Z,2.83
2022-12-28T13:24:56.548Z,2.92
2022-12-28T13:26:00.859Z,3.13
2022-12-28T13:27:06.359Z,2.63
2022-12-28T13:28:20.277Z,2.60
2022-12-28T13:29:24.671Z,3.10
2022-12-28T13:30:26.611Z,2.90
2022-12-28T13:31:39.605Z,3.13
2022-12-28T13:32:53.212Z,3.38
2022-12-28T13:34:25.947Z,3.30
2022-12-28T13:35:32.985Z,3.00
2022-12-28T13:36:34.499Z,2.65
2022-12-28T13:37:38.768Z,2.92
2022-12-28T13:38:41.500Z,2.88
2022-12-28T13:39:42.914Z,2.97
2022-12-28T13:40:52.455Z,3.03
2022-12-28T13:42:02.402Z,3.10
2022-12-28T13:43:29.134Z,2.97
2022-12-28T13:44:42.109Z,2.95
2022-12-28T13:45:49.285Z,3.10
2022-12-28T13:47:00.542Z,3.00
2022-12-28T13:48:02.572Z,3.00
2022-12-28T13:50:28.449Z,2.83
2022-12-28T13:51:29.942Z,2.90
2022-12-28T13:52:40.887Z,3.13
2022-12-28T13:53:49.778Z,2.97
2022-12-28T13:54:56.858Z,2.58
2022-12-28T13:56:01.817Z,2.60
2022-12-28T13:57:36.298Z,2.85
2022-12-28T13:58:27.996Z,2.67
2022-12-28T13:59:29.443Z,2.60
2022-12-28T14:00:33.247Z,2.58
2022-12-28T14:01:38.489Z,2.63
2022-12-28T14:02:41.616Z,2.60
2022-12-28T14:03:46.560Z,2.70
2022-12-28T14:04:52.754Z,2.80
2022-12-28T14:06:02.005Z,2.78
2022-12-28T14:07:10.549Z,2.55
2022-12-28T14:08:12.061Z,2.70
2022-12-28T14:09:15.167Z,2.50
2022-12-28T14:10:18.245Z,2.63
2022-12-28T14:11:20.513Z,2.47
2022-12-28T14:12:22.398Z,2.70
2022-12-28T14:13:24.307Z,2.75
2022-12-28T14:14:25.876Z,2.80
2022-12-28T14:15:27.936Z,2.78
2022-12-28T14:17:31.912Z,3.03
2022-12-28T14:18:34.003Z,3.17
2022-12-28T14:20:54.521Z,3.05
2022-12-28T14:21:56.037Z,2.92
2022-12-28T14:23:25.542Z,3.08
2022-12-28T14:24:27.003Z,2.45
2022-12-28T14:25:28.466Z,2.90
2022-12-28T14:26:30.402Z,3.63
2022-12-28T14:27:37.952Z,2.90
2022-12-28T14:28:48.700Z,3.30
2022-12-28T14:29:50.181Z,2.90
2022-12-28T14:30:54.141Z,4.00
2022-12-28T14:32:02.590Z,3.03
2022-12-28T14:33:24.400Z,2.92
2022-12-28T14:34:31.823Z,2.67
2022-12-28T14:35:33.299Z,2.63
2022-12-28T14:36:48.321Z,2.67
2022-12-28T14:37:56.928Z,2.80
2022-12-28T14:39:04.688Z,2.80
2022-12-28T14:40:15.669Z,3.00
2022-12-28T14:41:30.524Z,3.50
2022-12-28T14:42:33.035Z,3.20
2022-12-28T14:43:35.950Z,3.30
2022-12-28T14:44:43.485Z,3.35
2022-12-28T14:46:07.692Z,3.45
2022-12-28T14:47:37.487Z,3.60
2022-12-28T14:50:17.626Z,3.20
2022-12-28T14:51:31.052Z,3.22
2022-12-28T14:52:42.805Z,3.30
2022-12-28T14:53:45.307Z,3.15
2022-12-28T14:54:53.712Z,3.35
2022-12-28T14:56:07.221Z,3.17
2022-12-28T14:57:23.581Z,3.20
2022-12-28T14:58:51.831Z,3.30
2022-12-28T15:00:30.417Z,2.88
2022-12-28T15:01:46.723Z,3.20
2022-12-28T15:02:48.699Z,3.20
2022-12-28T15:03:54.546Z,3.13
2022-12-28T15:05:00.634Z,2.83
2022-12-28T15:06:02.502Z,3.08
2022-12-28T15:07:10.377Z,2.90